createdAt,value
2019-05-23T00:00:59.166Z,0.00
2019-05-23T00:01:59.089Z,0.00
2019-05-23T00:02:59.004Z,0.00
2019-05-23T00:03:58.945Z,0.00
2019-05-23T00:04:58.852Z,0.00
2019-05-23T00:05:58.771Z,0.00
2019-05-23T00:06:58.685Z,0.00
2019-05-23T00:07:58.609Z,0.00
2019-05-23T00:08:58.521Z,0.00
2019-05-23T00:09:58.443Z,0.00
2019-05-23T00:10:58.360Z,0.00
2019-05-23T00:11:58.280Z,0.00
2019-05-23T00:12:58.203Z,0.00
2019-05-23T00:13:58.196Z,0.00
2019-05-23T00:14:58.038Z,0.00
2019-05-23T00:15:57.962Z,0.00
2019-05-23T00:16:57.879Z,0.00
2019-05-23T00:17:57.798Z,0.00
2019-05-23T00:18:57.722Z,0.00
2019-05-23T00:19:57.634Z,0.00
2019-05-23T00:20:57.555Z,0.00
2019-05-23T00:21:57.476Z,0.00
2019-05-23T00:22:57.401Z,0.00
2019-05-23T00:23:57.321Z,0.00
2019-05-23T00:24:57.235Z,0.00
2019-05-23T00:25:57.154Z,0.00
2019-05-23T00:26:57.071Z,0.00
2019-05-23T00:27:56.993Z,0.00
2019-05-23T00:29:09.562Z,0.00
2019-05-23T00:29:56.832Z,0.00
2019-05-23T00:30:56.752Z,0.00
2019-05-23T00:31:56.673Z,0.00
2019-05-23T00:32:56.591Z,0.00
2019-05-23T00:33:56.510Z,0.00
2019-05-23T00:34:56.428Z,0.00
2019-05-23T00:35:56.351Z,0.00
2019-05-23T00:36:56.267Z,0.00
2019-05-23T00:37:56.187Z,0.00
2019-05-23T00:38:56.106Z,0.00
2019-05-23T00:39:56.021Z,0.00
2019-05-23T00:40:55.943Z,0.00
2019-05-23T00:41:55.865Z,0.00
2019-05-23T00:42:55.782Z,0.00
2019-05-23T00:43:55.704Z,0.00
2019-05-23T00:44:55.622Z,0.00
2019-05-23T00:45:55.539Z,0.00
2019-05-23T00:46:55.461Z,0.00
2019-05-23T00:47:55.383Z,0.00
2019-05-23T00:48:55.301Z,0.00
2019-05-23T00:49:55.219Z,0.00
2019-05-23T00:50:55.146Z,0.00
2019-05-23T00:51:55.058Z,0.00
2019-05-23T00:52:54.978Z,0.00
2019-05-23T00:53:54.896Z,0.00
2019-05-23T00:54:54.817Z,0.00
2019-05-23T00:55:54.734Z,0.00
2019-05-23T00:56:54.653Z,0.00
2019-05-23T00:57:54.571Z,0.00
2019-05-23T00:58:54.521Z,0.00
2019-05-23T00:59:54.410Z,0.00
2019-05-23T01:00:54.331Z,0.00
2019-05-23T01:01:54.254Z,0.00
2019-05-23T01:02:54.171Z,0.00
2019-05-23T01:03:54.098Z,0.00
2019-05-23T01:04:54.008Z,0.00
2019-05-23T01:05:53.926Z,0.00
2019-05-23T01:06:53.846Z,0.00
2019-05-23T01:07:53.767Z,0.00
2019-05-23T01:08:53.688Z,0.00
2019-05-23T01:09:53.608Z,0.00
2019-05-23T01:10:53.523Z,0.00
2019-05-23T01:11:53.444Z,0.00
2019-05-23T01:12:53.364Z,0.00
2019-05-23T01:13:53.278Z,0.00
2019-05-23T01:14:53.200Z,0.00
2019-05-23T01:15:53.122Z,0.00
2019-05-23T01:16:53.042Z,0.00
2019-05-23T01:17:52.961Z,0.00
2019-05-23T01:18:52.880Z,0.00
2019-05-23T01:19:52.796Z,0.00
2019-05-23T01:20:52.715Z,0.00
2019-05-23T01:21:52.641Z,0.00
2019-05-23T01:22:52.556Z,0.00
2019-05-23T01:23:52.537Z,0.00
2019-05-23T01:24:52.398Z,0.00
2019-05-23T01:25:52.315Z,0.00
2019-05-23T01:26:52.232Z,0.00
2019-05-23T01:27:52.150Z,0.00
2019-05-23T01:28:52.070Z,0.00
2019-05-23T01:29:51.990Z,0.00
2019-05-23T01:30:51.911Z,0.00
2019-05-23T01:31:51.827Z,0.00
2019-05-23T01:32:51.746Z,0.00
2019-05-23T01:33:51.668Z,0.00
2019-05-23T01:34:51.585Z,0.00
2019-05-23T01:35:51.526Z,0.00
2019-05-23T01:36:51.425Z,0.00
2019-05-23T01:37:51.343Z,0.00
2019-05-23T01:38:51.260Z,0.00
2019-05-23T01:39:51.181Z,0.00
2019-05-23T01:40:51.102Z,0.00
2019-05-23T01:41:51.053Z,0.00
2019-05-23T01:42:50.941Z,0.00
2019-05-23T01:43:50.858Z,0.00
2019-05-23T01:44:50.785Z,0.00
2019-05-23T01:45:50.697Z,0.00
2019-05-23T01:46:50.620Z,0.00
2019-05-23T01:47:50.537Z,0.00
2019-05-23T01:48:50.457Z,0.00
2019-05-23T01:49:50.373Z,0.00
2019-05-23T01:50:50.471Z,0.00
2019-05-23T01:51:50.223Z,0.00
2019-05-23T01:52:50.131Z,0.00
2019-05-23T01:53:50.051Z,0.00
2019-05-23T01:54:49.970Z,0.00
2019-05-23T01:55:49.888Z,0.00
2019-05-23T01:56:49.811Z,0.00
2019-05-23T01:57:49.728Z,0.00
2019-05-23T01:58:49.650Z,0.00
2019-05-23T02:00:05.926Z,0.00
2019-05-23T02:00:49.484Z,0.00
2019-05-23T02:01:49.407Z,0.00
2019-05-23T02:02:49.321Z,0.00
2019-05-23T02:03:49.242Z,0.00
2019-05-23T02:04:49.162Z,0.00
2019-05-23T02:05:49.081Z,0.00
2019-05-23T02:06:49.001Z,0.00
2019-05-23T02:07:48.927Z,0.00
2019-05-23T02:08:48.841Z,0.00
2019-05-23T02:09:48.761Z,0.00
2019-05-23T02:10:48.672Z,0.00
2019-05-23T02:11:48.593Z,0.00
2019-05-23T02:12:48.516Z,0.00
2019-05-23T02:13:48.437Z,0.00
2019-05-23T02:14:48.354Z,0.00
2019-05-23T02:15:48.268Z,0.00
2019-05-23T02:16:48.187Z,0.00
2019-05-23T02:17:48.107Z,0.00
2019-05-23T02:18:48.026Z,0.00
2019-05-23T02:19:47.944Z,0.00
2019-05-23T02:20:47.865Z,0.00
2019-05-23T02:21:47.782Z,0.00
2019-05-23T02:22:47.804Z,0.00
2019-05-23T02:23:47.620Z,0.00
2019-05-23T02:24:47.541Z,0.00
2019-05-23T02:25:47.464Z,0.00
2019-05-23T02:26:47.381Z,0.00
2019-05-23T02:27:47.298Z,0.00
2019-05-23T02:28:47.217Z,0.00
2019-05-23T02:29:47.135Z,0.00
2019-05-23T02:30:47.053Z,0.00
2019-05-23T02:31:46.973Z,0.00
2019-05-23T02:32:46.893Z,0.00
2019-05-23T02:33:46.811Z,0.00
2019-05-23T02:34:46.732Z,0.00
2019-05-23T02:35:46.654Z,0.00
2019-05-23T02:36:46.569Z,0.00
2019-05-23T02:37:46.485Z,0.00
2019-05-23T02:38:46.402Z,0.00
2019-05-23T02:39:46.326Z,0.00
2019-05-23T02:40:46.248Z,0.00
2019-05-23T02:41:46.161Z,0.00
2019-05-23T02:42:46.102Z,0.00
2019-05-23T02:43:45.999Z,0.00
2019-05-23T02:44:45.919Z,0.00
2019-05-23T02:45:45.838Z,0.00
2019-05-23T02:46:45.761Z,0.00
2019-05-23T02:47:45.670Z,0.00
2019-05-23T02:48:45.591Z,0.00
2019-05-23T02:49:45.513Z,0.00
2019-05-23T02:50:45.443Z,0.00
2019-05-23T02:51:45.354Z,0.00
2019-05-23T02:52:45.268Z,0.00
2019-05-23T02:53:45.187Z,0.00
2019-05-23T02:54:45.104Z,0.00
2019-05-23T02:55:45.023Z,0.00
2019-05-23T02:56:44.946Z,0.00
2019-05-23T02:57:44.864Z,0.00
2019-05-23T02:58:44.779Z,0.00
2019-05-23T02:59:44.698Z,0.00
2019-05-23T03:00:54.331Z,0.00
2019-05-23T03:01:44.543Z,0.00
2019-05-23T03:02:44.456Z,0.00
2019-05-23T03:03:44.372Z,0.00
2019-05-23T03:04:44.292Z,0.00
2019-05-23T03:05:44.221Z,0.00
2019-05-23T03:06:44.130Z,0.00
2019-05-23T03:07:44.064Z,0.00
2019-05-23T03:08:43.967Z,0.00
2019-05-23T03:09:43.888Z,0.00
2019-05-23T03:10:43.805Z,0.00
2019-05-23T03:11:43.723Z,0.00
2019-05-23T03:12:43.651Z,0.00
2019-05-23T03:13:43.560Z,0.00
2019-05-23T03:14:43.481Z,0.00
2019-05-23T03:15:43.397Z,0.00
2019-05-23T03:16:43.318Z,0.00
2019-05-23T03:17:43.236Z,0.00
2019-05-23T03:18:43.153Z,5.63
2019-05-23T03:19:43.073Z,5.63
2019-05-23T03:20:42.992Z,5.63
2019-05-23T03:21:42.910Z,5.63
2019-05-23T03:22:42.827Z,5.63
2019-05-23T03:23:42.755Z,5.63
2019-05-23T03:24:42.665Z,5.63
2019-05-23T03:25:42.583Z,5.63
2019-05-23T03:26:42.503Z,5.63
2019-05-23T03:27:42.419Z,11.25
2019-05-23T03:28:42.343Z,11.25
2019-05-23T03:29:42.256Z,11.25
2019-05-23T03:30:42.193Z,11.25
2019-05-23T03:31:42.102Z,11.25
2019-05-23T03:32:42.012Z,11.25
2019-05-23T03:33:41.937Z,11.25
2019-05-23T03:34:41.887Z,11.25
2019-05-23T03:35:41.833Z,16.88
2019-05-23T03:36:41.690Z,16.88
2019-05-23T03:37:41.604Z,16.88
2019-05-23T03:38:41.525Z,16.88
2019-05-23T03:39:41.442Z,16.88
2019-05-23T03:40:41.366Z,16.88
2019-05-23T03:41:41.277Z,16.88
2019-05-23T03:42:41.197Z,22.50
2019-05-23T03:43:41.122Z,22.50
2019-05-23T03:44:41.034Z,22.50
2019-05-23T03:45:40.958Z,22.50
2019-05-23T03:46:40.871Z,22.50
2019-05-23T03:47:40.787Z,22.50
2019-05-23T03:48:40.709Z,28.13
2019-05-23T03:49:40.627Z,28.13
2019-05-23T03:50:40.543Z,28.13
2019-05-23T03:51:40.482Z,28.13
2019-05-23T03:52:40.389Z,28.13
2019-05-23T03:53:40.300Z,28.13
2019-05-23T03:54:40.217Z,28.13
2019-05-23T03:55:40.136Z,33.75
2019-05-23T03:56:40.055Z,33.75
2019-05-23T03:57:39.967Z,33.75
2019-05-23T03:58:39.893Z,33.75
2019-05-23T03:59:39.811Z,33.75
2019-05-23T04:00:39.736Z,33.75
2019-05-23T04:01:47.870Z,33.75
2019-05-23T04:02:39.565Z,33.75
2019-05-23T04:03:40.276Z,39.38
2019-05-23T04:04:39.398Z,39.38
2019-05-23T04:05:39.330Z,39.38
2019-05-23T04:06:39.234Z,39.38
2019-05-23T04:07:39.156Z,39.38
2019-05-23T04:08:39.074Z,39.38
2019-05-23T04:09:38.993Z,39.38
2019-05-23T04:10:38.913Z,45.00
2019-05-23T04:11:38.834Z,45.00
2019-05-23T04:12:38.745Z,45.00
2019-05-23T04:13:38.662Z,45.00
2019-05-23T04:14:38.580Z,45.00
2019-05-23T04:15:38.500Z,45.00
2019-05-23T04:16:38.420Z,50.63
2019-05-23T04:17:38.335Z,50.63
2019-05-23T04:18:38.252Z,50.63
2019-05-23T04:19:38.171Z,50.63
2019-05-23T04:20:38.089Z,50.63
2019-05-23T04:21:38.009Z,50.63
2019-05-23T04:22:37.925Z,50.63
2019-05-23T04:23:37.846Z,50.63
2019-05-23T04:24:37.767Z,56.25
2019-05-23T04:25:37.683Z,56.25
2019-05-23T04:26:37.593Z,56.25
2019-05-23T04:27:37.512Z,56.25
2019-05-23T04:28:37.434Z,56.25
2019-05-23T04:29:37.349Z,56.25
2019-05-23T04:30:37.269Z,56.25
2019-05-23T04:31:37.184Z,56.25
2019-05-23T04:32:37.105Z,61.88
2019-05-23T04:33:37.022Z,61.88
2019-05-23T04:34:36.941Z,61.88
2019-05-23T04:35:36.859Z,61.88
2019-05-23T04:36:37.034Z,61.88
2019-05-23T04:37:36.706Z,61.88
2019-05-23T04:38:36.907Z,61.88
2019-05-23T04:39:36.533Z,61.88
2019-05-23T04:40:36.495Z,61.88
2019-05-23T04:41:36.372Z,61.88
2019-05-23T04:42:36.284Z,61.88
2019-05-23T04:43:36.224Z,61.88
2019-05-23T04:44:36.121Z,61.88
2019-05-23T04:45:36.043Z,61.88
2019-05-23T04:46:35.953Z,61.88
2019-05-23T04:47:35.881Z,61.88
2019-05-23T04:48:35.796Z,61.88
2019-05-23T04:49:35.714Z,61.88
2019-05-23T04:50:35.634Z,61.88
2019-05-23T04:51:35.548Z,61.88
2019-05-23T04:52:36.452Z,61.88
2019-05-23T04:53:35.389Z,61.88
2019-05-23T04:54:35.298Z,61.88
2019-05-23T04:55:35.221Z,61.88
2019-05-23T04:56:35.146Z,67.50
2019-05-23T04:57:35.056Z,67.50
2019-05-23T04:58:34.977Z,67.50
2019-05-23T04:59:34.889Z,61.88
2019-05-23T05:00:34.811Z,61.88
2019-05-23T05:01:34.729Z,61.88
2019-05-23T05:02:34.643Z,61.88
2019-05-23T05:03:34.581Z,61.88
2019-05-23T05:04:34.490Z,67.50
2019-05-23T05:05:34.402Z,67.50
2019-05-23T05:06:34.318Z,67.50
2019-05-23T05:07:34.231Z,67.50
2019-05-23T05:08:34.158Z,67.50
2019-05-23T05:09:34.176Z,67.50
2019-05-23T05:10:33.983Z,67.50
2019-05-23T05:11:33.908Z,67.50
2019-05-23T05:12:33.826Z,67.50
2019-05-23T05:13:33.754Z,67.50
2019-05-23T05:14:33.667Z,67.50
2019-05-23T05:15:33.581Z,73.13
2019-05-23T05:16:33.499Z,73.13
2019-05-23T05:17:33.422Z,73.13
2019-05-23T05:18:33.332Z,67.50
2019-05-23T05:19:33.254Z,67.50
2019-05-23T05:20:33.177Z,73.13
2019-05-23T05:21:33.088Z,73.13
2019-05-23T05:22:33.006Z,73.13
2019-05-23T05:23:32.925Z,73.13
2019-05-23T05:24:32.840Z,73.13
2019-05-23T05:25:32.761Z,73.13
2019-05-23T05:26:32.695Z,73.13
2019-05-23T05:27:32.596Z,73.13
2019-05-23T05:28:32.513Z,73.13
2019-05-23T05:29:32.435Z,73.13
2019-05-23T05:30:32.360Z,73.13
2019-05-23T05:31:32.267Z,73.13
2019-05-23T05:32:44.129Z,73.13
2019-05-23T05:33:39.766Z,73.13
2019-05-23T05:35:36.430Z,73.13
2019-05-23T05:36:36.335Z,73.13
2019-05-23T05:38:40.633Z,78.75
2019-05-23T05:39:40.542Z,78.75
2019-05-23T05:41:44.842Z,78.75
2019-05-23T05:42:44.758Z,78.75
2019-05-23T05:44:38.007Z,84.38
2019-05-23T05:45:37.911Z,84.38
2019-05-23T05:47:42.221Z,84.38
2019-05-23T05:48:42.125Z,90.00
2019-05-23T05:50:46.423Z,112.50
2019-05-23T05:51:46.347Z,118.13
2019-05-23T05:53:50.670Z,118.13
2019-05-23T05:54:50.538Z,118.13
2019-05-23T05:56:54.850Z,118.13
2019-05-23T05:57:54.770Z,118.13
2019-05-23T05:59:59.060Z,118.13
2019-05-23T06:00:59.019Z,118.13
2019-05-23T06:03:05.509Z,118.13
2019-05-23T06:04:03.174Z,123.75
2019-05-23T06:06:07.469Z,118.13
2019-05-23T06:07:07.381Z,123.75
2019-05-23T06:09:11.676Z,123.75
2019-05-23T06:10:11.587Z,123.75
2019-05-23T06:11:11.540Z,123.75
2019-05-23T06:12:11.419Z,123.75
2019-05-23T06:13:11.334Z,123.75
2019-05-23T06:14:11.260Z,123.75
2019-05-23T06:15:11.184Z,123.75
2019-05-23T06:16:11.092Z,123.75
2019-05-23T06:17:11.012Z,123.75
2019-05-23T06:18:10.930Z,123.75
2019-05-23T06:19:10.850Z,123.75
2019-05-23T06:20:10.767Z,123.75
2019-05-23T06:21:10.686Z,123.75
2019-05-23T06:22:10.606Z,123.75
2019-05-23T06:23:10.521Z,123.75
2019-05-23T06:24:10.439Z,123.75
2019-05-23T06:25:10.363Z,123.75
2019-05-23T06:26:10.276Z,123.75
2019-05-23T06:27:10.196Z,123.75
2019-05-23T06:28:10.113Z,123.75
2019-05-23T06:29:10.033Z,123.75
2019-05-23T06:30:09.954Z,123.75
2019-05-23T06:31:09.868Z,123.75
2019-05-23T06:32:09.789Z,123.75
2019-05-23T06:33:22.843Z,123.75
2019-05-23T06:34:09.625Z,123.75
2019-05-23T06:35:09.547Z,123.75
2019-05-23T06:36:09.470Z,123.75
2019-05-23T06:37:09.379Z,123.75
2019-05-23T06:38:09.303Z,123.75
2019-05-23T06:39:09.219Z,123.75
2019-05-23T06:40:09.143Z,123.75
2019-05-23T06:41:09.058Z,123.75
2019-05-23T06:42:08.977Z,129.38
2019-05-23T06:43:08.896Z,129.38
2019-05-23T06:44:08.814Z,135.00
2019-05-23T06:45:08.749Z,129.38
2019-05-23T06:46:08.654Z,135.00
2019-05-23T06:47:08.569Z,129.38
2019-05-23T06:48:08.493Z,129.38
2019-05-23T06:49:08.411Z,129.38
2019-05-23T06:50:08.345Z,129.38
2019-05-23T06:51:08.249Z,129.38
2019-05-23T06:52:08.166Z,129.38
2019-05-23T06:53:08.090Z,129.38
2019-05-23T06:54:08.003Z,129.38
2019-05-23T06:55:07.922Z,129.38
2019-05-23T06:56:07.844Z,129.38
2019-05-23T06:57:07.765Z,129.38
2019-05-23T06:58:07.721Z,129.38
2019-05-23T06:59:07.601Z,129.38
2019-05-23T07:00:07.518Z,129.38
2019-05-23T07:01:07.440Z,129.38
2019-05-23T07:02:07.363Z,129.38
2019-05-23T07:03:07.285Z,129.38
2019-05-23T07:04:07.204Z,129.38
2019-05-23T07:05:07.113Z,135.00
2019-05-23T07:06:07.051Z,135.00
2019-05-23T07:07:06.958Z,135.00
2019-05-23T07:08:06.878Z,135.00
2019-05-23T07:09:06.809Z,135.00
2019-05-23T07:10:06.724Z,135.00
2019-05-23T07:11:06.633Z,135.00
2019-05-23T07:12:06.555Z,135.00
2019-05-23T07:13:06.474Z,135.00
2019-05-23T07:14:06.393Z,135.00
2019-05-23T07:15:06.312Z,135.00
2019-05-23T07:16:06.236Z,135.00
2019-05-23T07:17:06.194Z,135.00
2019-05-23T07:18:06.084Z,135.00
2019-05-23T07:19:05.992Z,135.00
2019-05-23T07:20:05.912Z,135.00
2019-05-23T07:21:05.837Z,135.00
2019-05-23T07:22:05.752Z,135.00
2019-05-23T07:23:05.672Z,135.00
2019-05-23T07:24:05.594Z,135.00
2019-05-23T07:25:05.516Z,135.00
2019-05-23T07:26:05.429Z,135.00
2019-05-23T07:27:05.373Z,140.63
2019-05-23T07:28:05.272Z,140.63
2019-05-23T07:29:05.191Z,140.63
2019-05-23T07:30:05.116Z,140.63
2019-05-23T07:31:05.030Z,140.63
2019-05-23T07:32:04.952Z,140.63
2019-05-23T07:33:04.874Z,140.63
2019-05-23T07:34:04.796Z,140.63
2019-05-23T07:35:04.713Z,140.63
2019-05-23T07:36:04.637Z,140.63
2019-05-23T07:37:04.553Z,140.63
2019-05-23T07:38:04.476Z,140.63
2019-05-23T07:39:04.401Z,146.25
2019-05-23T07:40:04.311Z,146.25
2019-05-23T07:41:04.245Z,146.25
2019-05-23T07:42:04.315Z,146.25
2019-05-23T07:43:04.075Z,146.25
2019-05-23T07:44:04.009Z,146.25
2019-05-23T07:45:03.913Z,146.25
2019-05-23T07:46:03.839Z,146.25
2019-05-23T07:47:03.762Z,146.25
2019-05-23T07:48:03.675Z,146.25
2019-05-23T07:49:03.603Z,146.25
2019-05-23T07:50:03.519Z,151.88
2019-05-23T07:51:03.437Z,151.88
2019-05-23T07:52:03.356Z,151.88
2019-05-23T07:53:03.286Z,151.88
2019-05-23T07:54:03.205Z,151.88
2019-05-23T07:55:03.132Z,151.88
2019-05-23T07:56:03.037Z,151.88
2019-05-23T07:57:02.963Z,151.88
2019-05-23T07:58:02.879Z,151.88
2019-05-23T07:59:02.803Z,151.88
2019-05-23T08:00:02.720Z,157.50
2019-05-23T08:01:02.641Z,157.50
2019-05-23T08:02:02.558Z,157.50
2019-05-23T08:03:02.501Z,157.50
2019-05-23T08:04:19.690Z,157.50
2019-05-23T08:05:02.322Z,157.50
2019-05-23T08:06:02.240Z,157.50
2019-05-23T08:07:02.164Z,163.13
2019-05-23T08:08:02.126Z,163.13
2019-05-23T08:09:02.010Z,163.13
2019-05-23T08:10:02.004Z,168.75
2019-05-23T08:11:01.842Z,168.75
2019-05-23T08:12:01.764Z,168.75
2019-05-23T08:13:01.683Z,168.75
2019-05-23T08:14:01.632Z,168.75
2019-05-23T08:15:01.584Z,168.75
2019-05-23T08:16:01.442Z,168.75
2019-05-23T08:17:01.371Z,168.75
2019-05-23T08:18:01.290Z,174.38
2019-05-23T08:19:01.206Z,174.38
2019-05-23T08:20:01.131Z,168.75
2019-05-23T08:21:01.044Z,168.75
2019-05-23T08:22:00.972Z,168.75
2019-05-23T08:23:00.896Z,168.75
2019-05-23T08:24:00.812Z,168.75
2019-05-23T08:25:00.733Z,168.75
2019-05-23T08:26:00.657Z,168.75
2019-05-23T08:27:00.574Z,168.75
2019-05-23T08:28:00.492Z,174.38
2019-05-23T08:29:24.189Z,180.00
2019-05-23T08:30:02.308Z,180.00
2019-05-23T08:31:00.259Z,168.75
2019-05-23T08:32:00.176Z,208.13
2019-05-23T08:33:00.133Z,208.13
2019-05-23T08:34:00.021Z,208.13
2019-05-23T08:34:59.962Z,174.38
2019-05-23T08:35:59.861Z,213.75
2019-05-23T08:36:59.779Z,213.75
2019-05-23T08:37:59.703Z,219.38
2019-05-23T08:38:59.622Z,219.38
2019-05-23T08:39:59.541Z,219.38
2019-05-23T08:40:59.463Z,219.38
2019-05-23T08:41:59.389Z,191.25
2019-05-23T08:42:59.305Z,196.88
2019-05-23T08:43:59.235Z,202.50
2019-05-23T08:44:59.145Z,225.00
2019-05-23T08:45:59.069Z,230.63
2019-05-23T08:46:58.996Z,236.25
2019-05-23T08:47:58.918Z,247.50
2019-05-23T08:48:58.833Z,247.50
2019-05-23T08:49:58.756Z,258.75
2019-05-23T08:50:58.673Z,270.00
2019-05-23T08:51:58.674Z,309.38
2019-05-23T08:52:58.531Z,343.13
2019-05-23T08:53:58.435Z,354.38
2019-05-23T08:54:58.358Z,365.63
2019-05-23T08:55:58.288Z,365.63
2019-05-23T08:56:58.201Z,360.00
2019-05-23T08:57:58.192Z,343.13
2019-05-23T08:58:58.124Z,309.38
2019-05-23T08:59:57.969Z,236.25
2019-05-23T09:00:57.911Z,208.13
2019-05-23T09:01:57.811Z,191.25
2019-05-23T09:02:59.008Z,185.63
2019-05-23T09:03:57.651Z,180.00
2019-05-23T09:05:04.723Z,202.50
2019-05-23T09:05:57.499Z,196.88
2019-05-23T09:06:57.420Z,185.63
2019-05-23T09:07:57.359Z,185.63
2019-05-23T09:08:57.261Z,174.38
2019-05-23T09:09:57.188Z,168.75
2019-05-23T09:10:57.135Z,168.75
2019-05-23T09:11:57.101Z,208.13
2019-05-23T09:12:56.946Z,191.25
2019-05-23T09:13:56.874Z,202.50
2019-05-23T09:14:56.789Z,208.13
2019-05-23T09:15:56.718Z,196.88
2019-05-23T09:16:56.642Z,225.00
2019-05-23T09:17:56.553Z,230.63
2019-05-23T09:18:56.473Z,230.63
2019-05-23T09:19:56.399Z,230.63
2019-05-23T09:20:56.315Z,230.63
2019-05-23T09:21:57.972Z,236.25
2019-05-23T09:22:56.174Z,236.25
2019-05-23T09:23:56.078Z,236.25
2019-05-23T09:24:56.007Z,241.88
2019-05-23T09:25:55.925Z,230.63
2019-05-23T09:26:55.847Z,258.75
2019-05-23T09:27:55.767Z,258.75
2019-05-23T09:28:55.689Z,264.38
2019-05-23T09:29:55.614Z,270.00
2019-05-23T09:30:55.530Z,281.25
2019-05-23T09:31:55.458Z,292.50
2019-05-23T09:32:55.376Z,303.75
2019-05-23T09:33:55.297Z,303.75
2019-05-23T09:34:55.212Z,298.13
2019-05-23T09:35:55.143Z,303.75
2019-05-23T09:36:55.059Z,315.00
2019-05-23T09:37:54.986Z,320.63
2019-05-23T09:38:55.020Z,337.50
2019-05-23T09:39:54.832Z,348.75
2019-05-23T09:40:54.765Z,348.75
2019-05-23T09:41:54.688Z,348.75
2019-05-23T09:42:54.597Z,343.13
2019-05-23T09:43:54.512Z,343.13
2019-05-23T09:44:54.436Z,343.13
2019-05-23T09:45:54.356Z,348.75
2019-05-23T09:46:54.290Z,348.75
2019-05-23T09:47:54.204Z,360.00
2019-05-23T09:48:54.126Z,376.88
2019-05-23T09:49:54.448Z,388.13
2019-05-23T09:50:53.966Z,410.63
2019-05-23T09:51:57.979Z,438.75
2019-05-23T09:52:53.824Z,466.88
2019-05-23T09:53:53.735Z,506.25
2019-05-23T09:54:53.653Z,528.75
2019-05-23T09:55:55.800Z,528.75
2019-05-23T09:56:53.499Z,551.25
2019-05-23T09:57:53.438Z,551.25
2019-05-23T09:58:53.343Z,551.25
2019-05-23T09:59:56.864Z,506.25
2019-05-23T10:00:53.191Z,500.63
2019-05-23T10:01:53.140Z,472.50
2019-05-23T10:02:53.037Z,450.00
2019-05-23T10:03:52.960Z,427.50
2019-05-23T10:04:52.884Z,405.00
2019-05-23T10:05:52.808Z,393.75
2019-05-23T10:06:52.724Z,427.50
2019-05-23T10:07:52.655Z,421.88
2019-05-23T10:08:52.582Z,405.00
2019-05-23T10:09:52.503Z,399.38
2019-05-23T10:10:52.423Z,365.63
2019-05-23T10:11:52.344Z,343.13
2019-05-23T10:12:52.274Z,326.25
2019-05-23T10:13:52.193Z,315.00
2019-05-23T10:14:52.115Z,365.63
2019-05-23T10:15:52.042Z,360.00
2019-05-23T10:16:51.960Z,365.63
2019-05-23T10:17:51.888Z,354.38
2019-05-23T10:18:51.801Z,315.00
2019-05-23T10:19:51.731Z,298.13
2019-05-23T10:20:51.652Z,292.50
2019-05-23T10:21:51.577Z,292.50
2019-05-23T10:22:51.502Z,292.50
2019-05-23T10:23:51.419Z,371.25
2019-05-23T10:24:51.432Z,376.88
2019-05-23T10:25:51.273Z,393.75
2019-05-23T10:26:51.188Z,399.38
2019-05-23T10:27:51.107Z,405.00
2019-05-23T10:28:51.036Z,416.25
2019-05-23T10:29:50.968Z,433.13
2019-05-23T10:30:50.883Z,466.88
2019-05-23T10:31:50.804Z,483.75
2019-05-23T10:32:50.770Z,506.25
2019-05-23T10:33:50.685Z,562.50
2019-05-23T10:34:50.573Z,545.63
2019-05-23T10:36:00.350Z,613.13
2019-05-23T10:36:50.424Z,624.38
2019-05-23T10:37:50.343Z,618.75
2019-05-23T10:38:50.273Z,618.75
2019-05-23T10:39:50.184Z,607.50
2019-05-23T10:40:50.115Z,630.00
2019-05-23T10:41:50.058Z,675.00
2019-05-23T10:42:49.963Z,708.75
2019-05-23T10:43:49.887Z,736.88
2019-05-23T10:44:49.808Z,731.25
2019-05-23T10:45:49.727Z,714.38
2019-05-23T10:46:49.662Z,697.50
2019-05-23T10:47:49.582Z,691.88
2019-05-23T10:48:49.505Z,686.25
2019-05-23T10:49:49.431Z,652.50
2019-05-23T10:50:49.349Z,630.00
2019-05-23T10:51:49.277Z,523.13
2019-05-23T10:52:49.208Z,585.00
2019-05-23T10:53:49.127Z,596.25
2019-05-23T10:54:49.056Z,590.63
2019-05-23T10:55:48.972Z,613.13
2019-05-23T10:56:48.903Z,540.00
2019-05-23T10:57:48.824Z,540.00
2019-05-23T10:58:48.752Z,556.88
2019-05-23T10:59:48.680Z,568.13
2019-05-23T11:00:48.596Z,601.88
2019-05-23T11:01:48.527Z,596.25
2019-05-23T11:02:48.454Z,556.88
2019-05-23T11:03:48.370Z,624.38
2019-05-23T11:04:48.330Z,585.00
2019-05-23T11:05:48.217Z,483.75
2019-05-23T11:06:48.142Z,466.88
2019-05-23T11:07:48.075Z,455.63
2019-05-23T11:08:47.991Z,466.88
2019-05-23T11:09:47.913Z,495.00
2019-05-23T11:10:47.987Z,517.50
2019-05-23T11:11:47.765Z,540.00
2019-05-23T11:12:47.688Z,669.38
2019-05-23T11:13:47.608Z,534.38
2019-05-23T11:14:47.539Z,568.13
2019-05-23T11:15:47.465Z,765.00
2019-05-23T11:16:47.381Z,798.75
2019-05-23T11:17:47.338Z,849.38
2019-05-23T11:18:47.239Z,838.13
2019-05-23T11:19:47.156Z,849.38
2019-05-23T11:20:47.088Z,742.50
2019-05-23T11:21:47.016Z,855.00
2019-05-23T11:22:46.931Z,843.75
2019-05-23T11:23:46.856Z,984.38
2019-05-23T11:24:46.779Z,1035.00
2019-05-23T11:25:46.708Z,1035.00
2019-05-23T11:26:46.626Z,911.25
2019-05-23T11:27:46.556Z,939.38
2019-05-23T11:28:46.480Z,1125.00
2019-05-23T11:29:46.428Z,973.13
2019-05-23T11:30:46.334Z,956.25
2019-05-23T11:31:46.253Z,911.25
2019-05-23T11:32:46.180Z,888.75
2019-05-23T11:33:53.815Z,894.38
2019-05-23T11:35:50.416Z,1001.25
2019-05-23T11:36:50.331Z,855.00
2019-05-23T11:38:54.644Z,826.88
2019-05-23T11:39:54.564Z,866.25
2019-05-23T11:41:58.913Z,1023.75
2019-05-23T11:42:58.812Z,1001.25
2019-05-23T11:44:52.045Z,894.38
2019-05-23T11:45:51.970Z,866.25
2019-05-23T11:47:56.282Z,905.63
2019-05-23T11:48:56.195Z,900.00
2019-05-23T11:51:00.508Z,922.50
2019-05-23T11:52:00.421Z,945.00
2019-05-23T11:54:08.318Z,1029.38
2019-05-23T11:55:04.650Z,1006.88
2019-05-23T11:57:08.971Z,596.25
2019-05-23T11:58:08.884Z,568.13
2019-05-23T12:00:13.193Z,551.25
2019-05-23T12:01:20.510Z,511.88
2019-05-23T12:03:17.437Z,461.25
2019-05-23T12:04:17.349Z,466.88
2019-05-23T12:06:25.765Z,624.38
2019-05-23T12:07:21.584Z,528.75
2019-05-23T12:09:25.899Z,691.88
2019-05-23T12:10:25.870Z,5242.50
2019-05-23T12:12:30.124Z,6159.38
2019-05-23T12:13:30.037Z,6277.50
2019-05-23T12:15:34.353Z,5805.00
2019-05-23T12:16:34.280Z,6153.75
2019-05-23T12:18:38.601Z,6778.13
2019-05-23T12:19:38.533Z,7042.50
2019-05-23T12:21:42.861Z,6283.13
2019-05-23T12:22:42.810Z,6930.00
2019-05-23T12:24:36.101Z,7526.25
2019-05-23T12:25:35.977Z,7520.63
2019-05-23T12:27:39.831Z,7745.63
2019-05-23T12:28:39.763Z,7554.38
2019-05-23T12:29:39.696Z,7655.63
2019-05-23T12:30:39.639Z,7824.38
2019-05-23T12:31:39.587Z,7880.63
2019-05-23T12:32:39.519Z,7886.25
2019-05-23T12:33:39.462Z,1265.63
2019-05-23T12:34:39.414Z,1125.00
2019-05-23T12:35:39.341Z,1681.88
2019-05-23T12:36:39.285Z,6294.38
2019-05-23T12:37:39.221Z,1271.25
2019-05-23T12:38:39.161Z,765.00
2019-05-23T12:39:39.107Z,714.38
2019-05-23T12:40:39.042Z,714.38
2019-05-23T12:41:38.980Z,781.88
2019-05-23T12:42:38.917Z,1192.50
2019-05-23T12:43:38.855Z,7273.13
2019-05-23T12:44:38.795Z,1237.50
2019-05-23T12:45:38.732Z,939.38
2019-05-23T12:46:38.667Z,922.50
2019-05-23T12:47:38.611Z,1001.25
2019-05-23T12:48:38.539Z,1569.38
2019-05-23T12:49:38.485Z,1372.50
2019-05-23T12:50:38.415Z,1215.00
2019-05-23T12:51:38.350Z,1310.63
2019-05-23T12:52:38.280Z,1181.25
2019-05-23T12:53:38.214Z,1057.50
2019-05-23T12:54:38.146Z,1243.13
2019-05-23T12:55:38.080Z,2446.88
2019-05-23T12:56:38.015Z,1698.75
2019-05-23T12:57:37.947Z,1395.00
2019-05-23T12:58:37.881Z,973.13
2019-05-23T12:59:37.813Z,7565.63
2019-05-23T13:00:37.754Z,7475.63
2019-05-23T13:01:37.731Z,7340.63
2019-05-23T13:02:37.613Z,7576.88
2019-05-23T13:03:37.544Z,7841.25
2019-05-23T13:04:37.480Z,7841.25
2019-05-23T13:05:37.413Z,7858.13
2019-05-23T13:06:37.351Z,8015.63
2019-05-23T13:07:37.289Z,2823.75
2019-05-23T13:08:37.231Z,1726.88
2019-05-23T13:09:37.161Z,1321.88
2019-05-23T13:10:37.094Z,5934.38
2019-05-23T13:11:37.034Z,6536.25
2019-05-23T13:12:36.990Z,6215.63
2019-05-23T13:13:36.932Z,4820.63
2019-05-23T13:14:36.841Z,1001.25